Terminal Aerodrome Forecast
Issued by NWS Melbourne, FL

Home | Current Version | Previous Version | Text Only | Print | Product List | Glossary On
Versions: 1 2 3 4 5 6 7 8 9 10 11 12
288
FTUS42 KMLB 221729
TAFMLB
TAF
KMLB 221729Z 2218/2318 06011KT P6SM VCSH SCT030 SCT060
     FM230200 08007KT P6SM VCSH SCT035 SCT080
     FM230800 VRB03KT P6SM FEW020 SCT250=

USA.gov is the U.S. government's official web portal to all federal, state and local government web resources and services.